Time;durP1;ratioP1;P1;durP2;ratioP2;P2;SDS_P1;SDS_P2;PMS_P1;PMS_P2;Temp;Humidity;BMP_temperature;BMP_pressure;BME280_temperature;BME280_humidity;BME280_pressure;Samples;Min_cycle;Max_cycle;Signal;HPM_P1;HPM_P2
2022/04/24 00:01:12;;;;;;;10.73;7.20;;;10.70;90.20;;;;;;4810901;29;20047;-91
2022/04/24 00:18:58;;;;;;;11.80;7.53;;;10.60;90.40;;;;;;4817640;29;20041;-90
2022/04/24 00:22:24;;;;;;;12.32;7.43;;;10.50;90.40;;;;;;4809899;29;20049;-90
2022/04/24 00:26:07;;;;;;;11.98;7.72;;;10.50;90.60;;;;;;4767790;30;20032;-90
2022/04/24 00:40:39;;;;;;;10.50;7.75;;;10.40;90.80;;;;;;4750672;30;20043;-90
2022/04/24 01:07:41;;;;;;;10.10;7.93;;;10.20;91.40;;;;;;4823333;29;20083;-90
2022/04/24 01:11:05;;;;;;;10.77;7.97;;;10.20;91.50;;;;;;4899605;29;20059;-90
2022/04/24 01:28:35;;;;;;;12.60;7.78;;;10.30;91.80;;;;;;4914562;29;20083;-89
2022/04/24 01:38:45;;;;;;;11.07;7.80;;;10.30;91.80;;;;;;4832378;29;20041;-90
2022/04/24 02:13:35;;;;;;;9.60;7.63;;;10.50;92.20;;;;;;4880267;29;20059;-91
2022/04/24 02:52:22;;;;;;;9.98;7.50;;;10.70;92.10;;;;;;5006549;28;20050;-90
2022/04/24 02:54:47;;;;;;;10.00;7.20;;;10.70;92.10;;;;;;4983615;28;20022;-90
2022/04/24 02:57:13;;;;;;;10.48;7.68;;;10.70;92.10;;;;;;4984038;28;20612;-90
2022/04/24 02:59:42;;;;;;;11.32;7.35;;;10.70;92.10;;;;;;4984923;28;20065;-89
2022/04/24 03:02:09;;;;;;;9.40;7.93;;;10.70;92.20;;;;;;4976269;28;20023;-89
2022/04/24 03:04:39;;;;;;;9.32;7.93;;;10.70;92.40;;;;;;4976351;28;20027;-90
2022/04/24 03:07:06;;;;;;;9.93;7.38;;;10.70;92.50;;;;;;4976852;28;20034;-89
2022/04/24 03:09:32;;;;;;;11.15;8.63;;;10.70;92.40;;;;;;4977505;28;20041;-90
2022/04/24 03:11:58;;;;;;;10.25;7.07;;;10.70;92.50;;;;;;4975895;28;20538;-90
2022/04/24 03:14:23;;;;;;;10.82;7.85;;;10.70;92.60;;;;;;4989113;28;20026;-91
2022/04/24 03:16:49;;;;;;;10.60;8.52;;;10.80;92.70;;;;;;4987292;28;20031;-91
2022/04/24 03:19:14;;;;;;;9.93;7.53;;;10.80;92.80;;;;;;4983764;28;20029;-90
2022/04/24 03:21:40;;;;;;;9.93;7.63;;;10.80;92.80;;;;;;4981550;28;20034;-90
2022/04/24 03:24:06;;;;;;;10.88;8.40;;;10.90;92.80;;;;;;4996427;28;20022;-91
2022/04/24 03:26:32;;;;;;;11.65;8.50;;;10.90;93.00;;;;;;4979731;28;20022;-91
2022/04/24 03:29:05;;;;;;;10.93;8.70;;;10.90;93.20;;;;;;4980871;28;20138;-91
2022/04/24 03:31:41;;;;;;;12.48;8.85;;;10.90;93.50;;;;;;4993243;28;20037;-92
2022/04/24 03:34:21;;;;;;;11.05;8.45;;;11.00;93.80;;;;;;4976467;28;20094;-92
2022/04/24 03:36:49;;;;;;;10.90;8.60;;;11.00;93.90;;;;;;4982058;28;20461;-91
2022/04/24 03:39:20;;;;;;;13.55;9.00;;;11.00;94.00;;;;;;4972660;28;20105;-91
2022/04/24 03:42:26;;;;;;;11.55;9.25;;;11.00;93.80;;;;;;4985053;28;20110;-92
2022/04/24 03:45:54;;;;;;;11.70;9.18;;;11.00;94.00;;;;;;4977218;28;20095;-92
2022/04/24 03:48:43;;;;;;;14.73;9.23;;;10.90;94.10;;;;;;4939563;29;20031;-92
2022/04/24 03:52:13;;;;;;;14.25;9.60;;;10.80;94.30;;;;;;4928978;29;20518;-91
2022/04/24 03:54:46;;;;;;;12.43;9.68;;;10.70;94.90;;;;;;4963194;28;20086;-92
2022/04/24 03:57:37;;;;;;;12.60;9.60;;;10.60;95.20;;;;;;4993275;28;20142;-91
2022/04/24 04:00:37;;;;;;;;;;;;;;;;;;;;;
2022/04/24 04:03:30;;;;;;;12.13;9.40;;;10.60;95.70;;;;;;4984738;28;20348;-92
2022/04/24 04:06:42;;;;;;;13.90;10.07;;;10.60;95.80;;;;;;4972085;28;20431;-92
2022/04/24 04:09:15;;;;;;;13.68;10.18;;;10.60;95.80;;;;;;4965633;28;20034;-92
2022/04/24 04:11:57;;;;;;;13.50;9.95;;;10.60;95.90;;;;;;4974543;28;20038;-92
2022/04/24 04:14:54;;;;;;;14.80;10.10;;;10.60;96.10;;;;;;4981380;28;20046;-92
2022/04/24 04:17:29;;;;;;;14.18;10.18;;;10.70;96.10;;;;;;4987248;28;20061;-91
2022/04/24 04:19:58;;;;;;;14.40;10.50;;;10.70;96.20;;;;;;4976637;28;20031;-91
2022/04/24 04:22:26;;;;;;;12.85;9.95;;;10.70;96.30;;;;;;4983485;28;20030;-92
2022/04/24 04:25:00;;;;;;;14.10;10.38;;;10.80;96.50;;;;;;4986129;28;20172;-91
2022/04/24 04:27:27;;;;;;;15.55;10.32;;;10.80;96.80;;;;;;4982809;28;20042;-93
2022/04/24 04:30:26;;;;;;;12.90;10.27;;;10.80;96.70;;;;;;4978283;28;20014;-92
2022/04/24 04:32:55;;;;;;;14.73;10.52;;;10.80;97.00;;;;;;4978880;28;20026;-93
2022/04/24 04:35:31;;;;;;;14.20;10.20;;;10.70;96.80;;;;;;4973596;28;20051;-92
2022/04/24 04:38:09;;;;;;;13.23;10.50;;;10.70;97.10;;;;;;4979874;28;20030;-91
2022/04/24 04:40:43;;;;;;;14.52;10.93;;;10.70;97.00;;;;;;4986631;28;20113;-91
2022/04/24 04:43:16;;;;;;;12.18;9.80;;;10.70;97.20;;;;;;4975413;28;20022;-91
2022/04/24 04:46:05;;;;;;;14.23;10.82;;;10.60;97.40;;;;;;4990877;28;20080;-92
2022/04/24 04:49:00;;;;;;;13.00;9.98;;;10.60;97.60;;;;;;4974705;28;21833;-92
2022/04/24 04:51:53;;;;;;;12.18;10.25;;;10.70;97.80;;;;;;4993637;28;20059;-91
2022/04/24 04:54:34;;;;;;;13.35;10.45;;;10.70;97.80;;;;;;4989082;28;20038;-91
2022/04/24 04:57:33;;;;;;;15.13;10.82;;;10.70;97.90;;;;;;4978344;28;20023;-91
2022/04/24 05:03:51;;;;;;;14.25;10.18;;;10.80;97.90;;;;;;4991911;28;20075;-91
2022/04/24 05:09:42;;;;;;;13.82;9.82;;;10.70;97.70;;;;;;4978877;28;20038;-92
2022/04/24 05:12:11;;;;;;;16.48;10.32;;;10.70;97.90;;;;;;4988118;28;20095;-91
2022/04/24 05:14:44;;;;;;;16.52;10.82;;;10.70;98.00;;;;;;4973296;28;20054;-91
2022/04/24 05:17:17;;;;;;;16.90;11.20;;;10.70;98.20;;;;;;4979246;28;20035;-91
2022/04/24 05:20:16;;;;;;;13.35;10.43;;;10.60;98.30;;;;;;4993406;28;20393;-91
2022/04/24 05:23:32;;;;;;;14.30;10.93;;;10.70;98.60;;;;;;4975569;28;20022;-92
2022/04/24 05:26:53;;;;;;;14.52;10.52;;;10.60;98.50;;;;;;5003085;28;20027;-91
2022/04/24 05:29:25;;;;;;;13.70;10.32;;;10.70;98.50;;;;;;4987014;28;20122;-92
2022/04/24 05:32:49;;;;;;;;;;;;;;;;;;;;;
2022/04/24 05:35:22;;;;;;;13.40;10.38;;;10.70;98.50;;;;;;4984069;28;20129;-92
2022/04/24 05:37:51;;;;;;;13.15;10.70;;;10.70;98.50;;;;;;4992230;28;20445;-93
2022/04/24 05:40:38;;;;;;;16.50;11.18;;;10.60;98.70;;;;;;4987906;28;20122;-93
2022/04/24 05:43:15;;;;;;;15.70;10.75;;;10.60;98.70;;;;;;4999366;28;20098;-92
2022/04/24 05:45:50;;;;;;;14.57;10.48;;;10.50;99.00;;;;;;5006508;28;20014;-92
2022/04/24 05:48:22;;;;;;;15.65;10.75;;;10.50;99.00;;;;;;4994185;28;20066;-93
2022/04/24 05:50:59;;;;;;;16.50;11.80;;;10.40;99.20;;;;;;4999977;28;20058;-92
2022/04/24 05:53:29;;;;;;;17.45;12.35;;;10.20;99.50;;;;;;4987598;28;20074;-93
2022/04/24 05:56:02;;;;;;;21.88;14.63;;;10.00;99.70;;;;;;4987269;28;20034;-92
2022/04/24 05:58:28;;;;;;;15.02;10.07;;;9.90;99.90;;;;;;4983009;28;20030;-92
2022/04/24 06:00:53;;;;;;;13.88;8.43;;;9.80;99.90;;;;;;4986142;28;20050;-92
2022/04/24 06:03:22;;;;;;;5.13;4.38;;;9.60;99.90;;;;;;4982555;28;20098;-92
2022/04/24 06:05:48;;;;;;;4.75;3.78;;;9.50;99.90;;;;;;4976655;28;20072;-92
2022/04/24 06:08:15;;;;;;;3.33;2.92;;;9.30;99.90;;;;;;4977886;28;20038;-91
2022/04/24 06:10:42;;;;;;;3.13;2.83;;;9.30;99.90;;;;;;4994750;28;20069;-92
2022/04/24 06:13:08;;;;;;;3.15;2.53;;;9.30;99.90;;;;;;4982695;28;20090;-92
2022/04/24 06:15:39;;;;;;;3.67;3.10;;;9.30;99.90;;;;;;4987535;28;20122;-93
2022/04/24 06:18:05;;;;;;;4.97;3.42;;;9.30;99.90;;;;;;4992114;28;20072;-92
2022/04/24 06:20:34;;;;;;;3.45;2.88;;;9.30;99.90;;;;;;4975588;28;20387;-92
2022/04/24 06:23:01;;;;;;;3.45;3.10;;;9.30;99.90;;;;;;4987169;28;20026;-92
2022/04/24 06:25:32;;;;;;;3.38;2.15;;;9.40;99.90;;;;;;4987620;28;20035;-93
2022/04/24 06:28:12;;;;;;;2.10;1.90;;;9.30;99.90;;;;;;5005725;28;20025;-92
2022/04/24 06:30:41;;;;;;;3.88;2.90;;;9.40;99.90;;;;;;4990594;28;20054;-93
2022/04/24 06:33:11;;;;;;;2.00;1.70;;;9.40;99.90;;;;;;5008823;28;20018;-93
2022/04/24 06:35:37;;;;;;;1.88;1.45;;;9.30;99.90;;;;;;5000918;28;20145;-93
2022/04/24 06:38:04;;;;;;;1.30;1.20;;;9.30;99.90;;;;;;4989567;28;20036;-93
2022/04/24 06:40:32;;;;;;;10.73;5.05;;;9.30;99.90;;;;;;4981778;28;20033;-92
2022/04/24 06:43:06;;;;;;;7.00;3.45;;;9.30;99.90;;;;;;4986293;28;20031;-93
2022/04/24 06:45:39;;;;;;;2.85;2.30;;;9.30;99.90;;;;;;4983200;28;20035;-93
2022/04/24 06:48:11;;;;;;;1.40;1.30;;;9.40;99.90;;;;;;4985994;28;20030;-92
2022/04/24 06:50:42;;;;;;;2.08;1.17;;;9.40;99.90;;;;;;4992303;28;20034;-93
2022/04/24 06:53:11;;;;;;;1.48;1.23;;;9.40;99.90;;;;;;4992592;28;20034;-94
2022/04/24 06:55:40;;;;;;;1.17;1.10;;;9.40;99.90;;;;;;4982453;28;20023;-93
2022/04/24 06:58:24;;;;;;;1.50;1.40;;;9.40;99.90;;;;;;4981470;28;20061;-93
2022/04/24 07:00:53;;;;;;;1.33;0.95;;;9.40;99.90;;;;;;4988809;28;20023;-92
2022/04/24 07:03:23;;;;;;;0.80;0.80;;;9.40;99.90;;;;;;4980303;28;20034;-94
2022/04/24 07:06:15;;;;;;;0.68;0.68;;;9.40;99.90;;;;;;4986782;28;20026;-93
2022/04/24 07:08:45;;;;;;;1.58;0.80;;;9.40;99.90;;;;;;4981654;28;20050;-93
2022/04/24 07:11:13;;;;;;;0.80;0.80;;;9.30;99.90;;;;;;4987506;28;20039;-93
2022/04/24 07:13:40;;;;;;;0.40;0.40;;;9.30;99.90;;;;;;4986443;28;20027;-92
2022/04/24 07:16:09;;;;;;;0.40;0.40;;;9.20;99.90;;;;;;4984552;28;20267;-92
2022/04/24 07:18:35;;;;;;;0.57;0.50;;;9.20;99.90;;;;;;4982884;28;20030;-93
2022/04/24 07:21:06;;;;;;;0.60;0.40;;;9.10;99.90;;;;;;5003156;28;20022;-93
2022/04/24 07:23:42;;;;;;;0.47;0.47;;;9.10;99.90;;;;;;4982087;28;20035;-93
2022/04/24 07:26:10;;;;;;;0.65;0.50;;;9.10;99.90;;;;;;4990534;28;20100;-93
2022/04/24 07:28:40;;;;;;;1.88;1.23;;;9.00;99.90;;;;;;4989686;28;20026;-92
2022/04/24 07:31:19;;;;;;;0.70;0.70;;;9.00;99.90;;;;;;4977526;28;20031;-93
2022/04/24 07:34:14;;;;;;;1.98;0.45;;;9.00;99.90;;;;;;4988002;28;20031;-93
2022/04/24 07:36:52;;;;;;;0.50;0.50;;;8.90;99.90;;;;;;4978929;28;20118;-93
2022/04/24 07:40:07;;;;;;;0.40;0.40;;;8.90;99.90;;;;;;4992616;28;20027;-94
2022/04/24 07:43:28;;;;;;;0.63;0.55;;;8.80;99.90;;;;;;4958181;28;20140;-93
2022/04/24 07:46:32;;;;;;;0.40;0.40;;;8.80;99.90;;;;;;4895334;29;20115;-93
2022/04/24 07:56:39;;;;;;;;;;;;;;;;;;;;;
2022/04/24 08:13:04;;;;;;;0.52;0.50;;;8.60;99.90;;;;;;4911143;29;20056;-94
2022/04/24 08:16:02;;;;;;;1.70;0.80;;;8.50;99.90;;;;;;4898426;29;20065;-94
2022/04/24 08:18:44;;;;;;;0.70;0.47;;;8.50;99.90;;;;;;4938737;29;20487;-94
2022/04/24 08:57:32;;;;;;;1.48;0.60;;;8.40;99.90;;;;;;5010466;28;20062;-90
2022/04/24 09:00:45;;;;;;;0.40;0.40;;;8.40;99.90;;;;;;5010880;28;20056;-89
2022/04/24 09:04:21;;;;;;;0.43;0.40;;;8.40;99.90;;;;;;4929143;28;20058;-90
2022/04/24 09:11:36;;;;;;;0.52;0.50;;;8.50;99.90;;;;;;5013242;28;20061;-89
2022/04/24 09:14:30;;;;;;;0.43;0.40;;;8.50;99.90;;;;;;4949688;28;20035;-88
2022/04/24 09:24:16;;;;;;;1.25;1.05;;;8.70;99.90;;;;;;4900613;29;20031;-89
2022/04/24 09:28:17;;;;;;;1.10;1.10;;;8.80;99.90;;;;;;4936186;29;20533;-89
2022/04/24 09:31:39;;;;;;;0.82;0.60;;;8.90;99.90;;;;;;4946782;28;20087;-88
2022/04/24 09:35:00;;;;;;;0.50;0.50;;;8.90;99.90;;;;;;4953598;28;20049;-89
2022/04/24 09:42:02;;;;;;;0.50;0.50;;;9.00;99.90;;;;;;4897549;29;20115;-90
2022/04/24 09:45:41;;;;;;;0.40;0.40;;;9.00;99.90;;;;;;4889748;29;20045;-91
2022/04/24 09:52:33;;;;;;;0.77;0.73;;;9.00;99.90;;;;;;4897645;29;20100;-91
2022/04/24 09:56:09;;;;;;;1.65;1.27;;;9.00;99.90;;;;;;4850524;29;20045;-91
2022/04/24 10:09:57;;;;;;;0.63;0.63;;;9.00;99.90;;;;;;4787680;29;20050;-91
2022/04/24 10:13:30;;;;;;;0.82;0.80;;;9.00;99.90;;;;;;4780591;30;20047;-90
2022/04/24 10:23:58;;;;;;;0.50;0.50;;;9.10;99.90;;;;;;4749056;30;20040;-91
2022/04/24 10:27:19;;;;;;;1.00;0.77;;;9.10;99.90;;;;;;4815918;29;20047;-92
2022/04/24 10:30:25;;;;;;;2.60;1.00;;;9.10;99.90;;;;;;4807313;29;20041;-91
2022/04/24 10:44:22;;;;;;;0.80;0.80;;;9.30;99.90;;;;;;4845749;29;20067;-90
2022/04/24 10:57:57;;;;;;;0.52;0.52;;;9.30;99.90;;;;;;4846311;29;20037;-88
2022/04/24 11:00:39;;;;;;;0.50;0.50;;;9.30;99.90;;;;;;4876905;29;20493;-87
2022/04/24 11:03:40;;;;;;;0.60;0.60;;;9.30;99.90;;;;;;4916765;29;20063;-87
2022/04/24 11:11:10;;;;;;;1.00;0.40;;;9.40;99.90;;;;;;4874344;29;20068;-86
2022/04/24 11:13:59;;;;;;;0.77;0.60;;;9.50;99.90;;;;;;4885809;29;20060;-89
2022/04/24 11:16:29;;;;;;;0.90;0.90;;;9.50;99.90;;;;;;4881360;29;20127;-88
2022/04/24 11:19:28;;;;;;;1.30;1.20;;;9.50;99.90;;;;;;4929621;28;20529;-86
2022/04/24 11:22:21;;;;;;;2.80;2.50;;;9.50;99.90;;;;;;4962319;28;20051;-86
2022/04/24 11:34:51;;;;;;;4.47;1.58;;;9.40;99.90;;;;;;4968137;28;20030;-88
2022/04/24 11:37:29;;;;;;;1.35;0.85;;;9.50;99.90;;;;;;4972997;28;20031;-89
2022/04/24 17:59:20;;;;;;;43.35;24.33;;;9.80;99.90;;;;;;5011919;28;20510;-89
2022/04/24 18:01:46;;;;;;;36.38;24.48;;;9.80;99.90;;;;;;4991245;28;20031;-88
2022/04/24 18:04:12;;;;;;;40.25;24.83;;;9.80;99.90;;;;;;4995309;28;20100;-88
2022/04/24 18:06:38;;;;;;;39.20;24.33;;;9.80;99.90;;;;;;4988736;28;20033;-86
2022/04/24 18:09:05;;;;;;;41.30;24.88;;;9.80;99.90;;;;;;4994183;28;20544;-89
2022/04/24 18:11:31;;;;;;;37.17;24.30;;;9.80;99.90;;;;;;4989675;28;20073;-89
2022/04/24 18:13:57;;;;;;;39.60;24.42;;;9.80;99.90;;;;;;4997675;28;20723;-89
2022/04/24 18:16:24;;;;;;;36.67;23.73;;;9.80;99.90;;;;;;4989156;28;20029;-89
2022/04/24 18:18:51;;;;;;;36.70;23.10;;;9.80;99.90;;;;;;4993949;28;20026;-88
2022/04/24 18:21:18;;;;;;;40.50;24.00;;;9.90;99.90;;;;;;5005820;28;20533;-89
2022/04/24 18:23:44;;;;;;;37.05;23.90;;;9.90;99.90;;;;;;5012122;28;20069;-89
2022/04/24 18:26:10;;;;;;;39.70;24.98;;;9.90;99.90;;;;;;5007056;28;20025;-89
2022/04/24 18:28:35;;;;;;;38.30;23.15;;;9.90;99.90;;;;;;4997780;28;20033;-89
2022/04/24 18:31:02;;;;;;;36.65;23.33;;;9.90;99.90;;;;;;5000250;28;20037;-89
2022/04/24 18:33:27;;;;;;;44.25;24.67;;;9.90;99.90;;;;;;5007875;28;20030;-88
2022/04/24 18:38:38;;;;;;;35.25;23.42;;;9.90;99.90;;;;;;5023068;28;20044;-89
2022/04/24 18:41:07;;;;;;;35.72;23.13;;;9.90;99.90;;;;;;5001100;28;20018;-87
2022/04/24 18:43:37;;;;;;;34.47;23.27;;;9.90;99.90;;;;;;5006967;28;20030;-88
2022/04/24 18:46:03;;;;;;;39.85;23.77;;;9.90;99.90;;;;;;4996465;28;20032;-87
2022/04/24 18:48:30;;;;;;;39.33;24.75;;;10.00;99.90;;;;;;4999212;28;20058;-90
2022/04/24 18:50:56;;;;;;;41.78;24.00;;;10.00;99.90;;;;;;5026504;28;20024;-90
2022/04/24 18:53:22;;;;;;;39.40;25.55;;;10.00;99.90;;;;;;5006097;28;20045;-88
2022/04/24 18:55:48;;;;;;;40.20;24.17;;;10.00;99.90;;;;;;5000596;28;20022;-89
2022/04/24 18:58:14;;;;;;;36.63;23.85;;;10.00;99.90;;;;;;5018532;28;20026;-89
2022/04/24 19:00:39;;;;;;;39.28;23.38;;;10.00;99.90;;;;;;5023098;28;20094;-87
2022/04/24 19:03:05;;;;;;;42.17;24.35;;;10.00;99.90;;;;;;5017765;28;20026;-87
2022/04/24 19:08:17;;;;;;;39.67;24.48;;;10.00;99.90;;;;;;5032948;28;20033;-87
2022/04/24 19:13:29;;;;;;;39.97;24.75;;;10.10;99.90;;;;;;5017777;28;20057;-88
2022/04/24 19:15:55;;;;;;;39.05;24.27;;;10.20;99.90;;;;;;5004420;28;20022;-89
2022/04/24 19:18:20;;;;;;;36.17;23.33;;;10.20;99.90;;;;;;4990440;28;20026;-89
2022/04/24 19:20:47;;;;;;;38.65;23.73;;;10.20;99.90;;;;;;5000960;28;20108;-89
2022/04/24 19:23:12;;;;;;;36.50;23.35;;;10.30;99.90;;;;;;5022139;28;20064;-89
2022/04/24 19:25:38;;;;;;;38.88;24.98;;;10.30;99.90;;;;;;4991432;28;20062;-88
2022/04/24 19:28:04;;;;;;;33.90;21.38;;;10.30;99.90;;;;;;5007115;28;20101;-88
2022/04/24 19:30:31;;;;;;;30.23;20.05;;;10.30;99.90;;;;;;4989139;28;20056;-88
2022/04/24 19:32:57;;;;;;;32.33;20.77;;;10.30;99.90;;;;;;5002575;28;20022;-88
2022/04/24 19:35:23;;;;;;;34.22;21.02;;;10.30;99.90;;;;;;4991460;28;20029;-89
2022/04/24 19:37:49;;;;;;;30.58;20.00;;;10.30;99.90;;;;;;4994907;28;20014;-88
2022/04/24 19:40:16;;;;;;;29.55;19.85;;;10.30;99.90;;;;;;4994241;28;20041;-89
2022/04/24 19:42:44;;;;;;;30.50;20.30;;;10.30;99.90;;;;;;4992020;28;20037;-87
2022/04/24 19:45:11;;;;;;;35.25;21.35;;;10.30;99.90;;;;;;4987301;28;20110;-88
2022/04/24 19:50:22;;;;;;;31.98;21.33;;;10.40;99.90;;;;;;5008777;28;20040;-88
2022/04/24 19:52:49;;;;;;;34.63;21.92;;;10.40;99.90;;;;;;4989934;28;20026;-87
2022/04/24 19:55:20;;;;;;;37.05;23.15;;;10.40;99.90;;;;;;4998893;28;20026;-88
2022/04/24 19:57:46;;;;;;;34.13;21.23;;;10.40;99.90;;;;;;5010658;28;20068;-88
2022/04/24 20:00:14;;;;;;;224.48;144.50;;;10.40;99.90;;;;;;5007310;28;20094;-88
2022/04/24 20:02:39;;;;;;;43.55;27.63;;;10.40;99.90;;;;;;5008221;28;20026;-89
2022/04/24 20:05:06;;;;;;;42.15;25.23;;;10.40;99.90;;;;;;5007911;28;20112;-89
2022/04/24 20:07:32;;;;;;;39.35;24.73;;;10.40;99.90;;;;;;5008108;28;21158;-89
2022/04/24 20:09:59;;;;;;;37.95;22.75;;;10.40;99.90;;;;;;4986488;28;20037;-90
2022/04/24 20:12:26;;;;;;;33.83;22.27;;;10.40;99.90;;;;;;4995303;28;20446;-89
2022/04/24 20:14:53;;;;;;;36.72;23.42;;;10.40;99.90;;;;;;5007085;28;20391;-89
2022/04/24 20:17:19;;;;;;;39.00;24.48;;;10.40;99.90;;;;;;4994146;28;20034;-89
2022/04/24 20:19:46;;;;;;;38.17;23.75;;;10.40;99.90;;;;;;5014067;28;20228;-90
2022/04/24 20:22:12;;;;;;;38.65;24.10;;;10.40;99.90;;;;;;4999132;28;20375;-90
2022/04/24 20:24:38;;;;;;;34.38;21.73;;;10.50;99.90;;;;;;5000053;28;20025;-90
2022/04/24 20:27:04;;;;;;;38.38;23.42;;;10.40;99.90;;;;;;4996188;28;20033;-90
2022/04/24 20:29:30;;;;;;;37.85;23.10;;;10.50;99.90;;;;;;5004506;28;20095;-90
2022/04/24 20:31:55;;;;;;;35.35;21.90;;;10.40;99.90;;;;;;5000323;28;20026;-89
2022/04/24 20:34:21;;;;;;;33.80;22.10;;;10.40;99.90;;;;;;4998355;28;20017;-89
2022/04/24 20:36:48;;;;;;;35.53;22.38;;;10.40;99.90;;;;;;5000709;28;20045;-89
2022/04/24 20:39:15;;;;;;;36.70;22.88;;;10.40;99.90;;;;;;4998851;28;20030;-90
2022/04/24 20:41:46;;;;;;;34.92;22.25;;;10.40;99.90;;;;;;4998197;28;20029;-89
2022/04/24 20:44:15;;;;;;;35.60;22.15;;;10.40;99.90;;;;;;5017896;28;20106;-89
2022/04/24 20:46:41;;;;;;;36.03;21.75;;;10.40;99.90;;;;;;5028018;23;20180;-86
2022/04/24 20:49:07;;;;;;;33.60;21.92;;;10.40;99.90;;;;;;5008535;28;20029;-84
2022/04/24 20:51:33;;;;;;;37.15;23.25;;;10.40;99.90;;;;;;5000092;28;20034;-84
2022/04/24 20:54:03;;;;;;;39.38;23.30;;;10.40;99.90;;;;;;5017084;28;20077;-85
2022/04/24 20:56:33;;;;;;;36.88;23.88;;;10.40;99.90;;;;;;5012637;28;20033;-86
2022/04/24 20:58:59;;;;;;;39.42;23.50;;;10.40;99.90;;;;;;5014532;28;20030;-86
2022/04/24 21:01:24;;;;;;;37.70;23.40;;;10.50;99.90;;;;;;5012491;28;20010;-87
2022/04/24 21:03:50;;;;;;;40.35;23.90;;;10.40;99.90;;;;;;5025569;28;20110;-87
2022/04/24 21:06:16;;;;;;;39.83;23.48;;;10.40;99.90;;;;;;5004336;28;20017;-87
2022/04/24 21:08:41;;;;;;;41.60;25.08;;;10.40;99.90;;;;;;5028278;28;20052;-87
2022/04/24 21:11:07;;;;;;;36.40;22.45;;;10.40;99.90;;;;;;4995335;28;20037;-87
2022/04/24 21:13:32;;;;;;;38.85;23.90;;;10.30;99.90;;;;;;5011047;28;20022;-86
2022/04/24 21:15:58;;;;;;;39.20;22.38;;;10.40;99.90;;;;;;4992154;28;20015;-87
2022/04/24 21:18:24;;;;;;;38.55;23.33;;;10.40;99.90;;;;;;4994125;28;20095;-86
2022/04/24 21:20:49;;;;;;;37.88;23.60;;;10.40;99.90;;;;;;4998584;28;20022;-86
2022/04/24 21:23:19;;;;;;;40.30;23.85;;;10.40;99.90;;;;;;4996037;28;20038;-86
2022/04/24 21:25:45;;;;;;;41.95;23.95;;;10.40;99.90;;;;;;4994933;28;20014;-86
2022/04/24 21:28:11;;;;;;;44.50;25.17;;;10.50;99.90;;;;;;4996714;28;20037;-87
2022/04/24 21:30:37;;;;;;;45.78;25.63;;;10.40;99.90;;;;;;5004222;28;20034;-87
2022/04/24 21:33:02;;;;;;;42.05;25.15;;;10.50;99.90;;;;;;5007114;28;20031;-87
2022/04/24 21:35:28;;;;;;;43.60;24.80;;;10.50;99.90;;;;;;4998904;28;20018;-87
2022/04/24 21:37:54;;;;;;;40.58;23.95;;;10.40;99.90;;;;;;5004977;28;20022;-85
2022/04/24 21:40:20;;;;;;;41.30;25.33;;;10.50;99.90;;;;;;4997847;28;20021;-87
2022/04/24 21:42:45;;;;;;;42.17;25.42;;;10.50;99.90;;;;;;4998733;28;20030;-86
2022/04/24 21:45:11;;;;;;;41.55;25.27;;;10.50;99.90;;;;;;4996426;28;20022;-86
2022/04/24 21:47:39;;;;;;;41.22;25.70;;;10.50;99.90;;;;;;5004720;28;20026;-87
2022/04/24 21:50:06;;;;;;;42.80;25.38;;;10.50;99.90;;;;;;5007550;28;20014;-85
2022/04/24 21:52:33;;;;;;;47.72;26.92;;;10.50;99.90;;;;;;5003137;28;20034;-88
2022/04/24 21:54:58;;;;;;;48.90;27.67;;;10.50;99.90;;;;;;5014660;28;20032;-86
2022/04/24 21:57:24;;;;;;;46.80;25.98;;;10.40;99.90;;;;;;4999196;28;20522;-87
2022/04/24 21:59:49;;;;;;;46.42;26.73;;;10.40;99.90;;;;;;4995816;28;20521;-86
2022/04/24 22:04:59;;;;;;;46.67;27.65;;;10.40;99.90;;;;;;5008170;28;20108;-86
2022/04/24 22:07:25;;;;;;;50.20;28.10;;;10.30;99.90;;;;;;4998141;28;20508;-85
2022/04/24 22:09:53;;;;;;;47.03;27.42;;;10.30;99.90;;;;;;4983514;28;20026;-85
2022/04/24 22:12:19;;;;;;;45.55;26.73;;;10.30;99.90;;;;;;4996490;28;20030;-86
2022/04/24 22:14:44;;;;;;;54.80;27.15;;;10.20;99.90;;;;;;5001458;28;20015;-86
2022/04/24 22:17:10;;;;;;;44.53;25.50;;;10.20;99.90;;;;;;4989674;28;20487;-86
2022/04/24 22:19:35;;;;;;;43.83;24.98;;;10.20;99.90;;;;;;4994748;28;20030;-85
2022/04/24 22:24:45;;;;;;;45.75;24.88;;;10.20;99.90;;;;;;5009650;28;20033;-85
2022/04/24 22:27:10;;;;;;;50.25;27.15;;;10.20;99.90;;;;;;5015911;28;20026;-86
2022/04/24 22:29:37;;;;;;;47.90;25.88;;;10.20;99.90;;;;;;4997860;28;20030;-86
2022/04/24 22:32:04;;;;;;;42.08;24.17;;;10.20;99.90;;;;;;5013569;28;20515;-87
2022/04/24 22:34:30;;;;;;;43.35;23.90;;;10.20;99.90;;;;;;4995960;28;20085;-85
2022/04/24 22:36:55;;;;;;;42.42;24.52;;;10.20;99.90;;;;;;5012316;28;20018;-86
2022/04/24 22:39:22;;;;;;;46.88;24.30;;;10.20;99.90;;;;;;4995710;28;20510;-85
2022/04/24 22:41:49;;;;;;;47.13;25.45;;;10.20;99.90;;;;;;4985661;28;20415;-85
2022/04/24 22:44:16;;;;;;;44.15;25.02;;;10.30;99.90;;;;;;4987887;28;20026;-86
2022/04/24 22:46:43;;;;;;;44.33;25.27;;;10.20;99.90;;;;;;4990587;28;20057;-85
2022/04/24 22:49:11;;;;;;;47.22;25.17;;;10.20;99.90;;;;;;4987176;28;20056;-85
2022/04/24 22:51:38;;;;;;;42.72;24.15;;;10.20;99.90;;;;;;5007852;28;20014;-86
2022/04/24 22:54:04;;;;;;;45.47;25.45;;;10.10;99.90;;;;;;4996893;28;20109;-86
2022/04/24 22:56:30;;;;;;;48.80;25.92;;;10.10;99.90;;;;;;5004102;28;20022;-86
2022/04/24 22:58:56;;;;;;;45.50;25.05;;;10.10;99.90;;;;;;4998361;28;20085;-87
2022/04/24 23:01:21;;;;;;;44.95;25.27;;;10.00;99.90;;;;;;4991597;28;20030;-87
2022/04/24 23:03:47;;;;;;;43.35;24.30;;;10.00;99.90;;;;;;4985889;28;20455;-86
2022/04/24 23:06:14;;;;;;;47.40;25.35;;;10.00;99.90;;;;;;4995619;28;20507;-86
2022/04/24 23:08:40;;;;;;;50.92;25.98;;;10.00;99.90;;;;;;4989680;28;20104;-85
2022/04/24 23:11:05;;;;;;;46.88;25.38;;;10.00;99.90;;;;;;4996152;28;20097;-87
2022/04/24 23:13:31;;;;;;;48.05;27.02;;;10.00;99.90;;;;;;4990216;28;20021;-85
2022/04/24 23:15:57;;;;;;;47.80;25.63;;;10.00;99.90;;;;;;5001844;28;20029;-85
2022/04/24 23:21:07;;;;;;;47.35;25.17;;;10.00;99.90;;;;;;5006862;28;20025;-86
2022/04/24 23:23:32;;;;;;;49.55;26.20;;;10.00;99.90;;;;;;4988647;28;20392;-86
2022/04/24 23:25:58;;;;;;;47.60;25.35;;;10.00;99.90;;;;;;4990522;28;20010;-86
2022/04/24 23:28:23;;;;;;;46.55;24.38;;;10.00;99.90;;;;;;4988427;28;20018;-87
2022/04/24 23:30:49;;;;;;;44.90;24.23;;;10.00;99.90;;;;;;5001443;28;20118;-85
2022/04/24 23:33:16;;;;;;;46.65;25.58;;;10.10;99.90;;;;;;5009481;28;20026;-85
2022/04/24 23:35:41;;;;;;;49.28;26.52;;;10.00;99.90;;;;;;4993265;28;20014;-85
2022/04/24 23:38:07;;;;;;;45.50;24.73;;;10.00;99.90;;;;;;5002107;28;20072;-85
2022/04/24 23:40:33;;;;;;;45.35;25.98;;;10.00;99.90;;;;;;4997713;28;20463;-86
2022/04/24 23:42:59;;;;;;;46.45;25.02;;;10.00;99.90;;;;;;5007677;28;20018;-85
2022/04/24 23:45:24;;;;;;;43.80;24.33;;;10.00;99.90;;;;;;4993086;28;20065;-86
2022/04/24 23:47:50;;;;;;;44.15;23.85;;;10.00;99.90;;;;;;4987660;28;20427;-87
2022/04/24 23:50:16;;;;;;;42.33;23.35;;;10.10;99.90;;;;;;5015015;28;20034;-85
2022/04/24 23:52:43;;;;;;;47.70;24.85;;;10.10;99.90;;;;;;4985650;28;20389;-87
2022/04/24 23:55:09;;;;;;;45.03;24.23;;;10.20;99.90;;;;;;4988347;28;20026;-85
2022/04/24 23:57:35;;;;;;;41.30;23.40;;;10.20;99.90;;;;;;4999199;28;20480;-86
